createdAt,value
2018-06-09T00:00:57.742Z,20.20
2018-06-09T00:03:25.259Z,20.20
2018-06-09T00:05:52.821Z,20.20
2018-06-09T00:08:20.327Z,20.20
2018-06-09T00:10:47.838Z,20.10
2018-06-09T00:13:15.334Z,20.10
2018-06-09T00:15:42.834Z,20.10
2018-06-09T00:18:10.352Z,20.10
2018-06-09T00:20:37.856Z,20.10
2018-06-09T00:23:05.389Z,20.10
2018-06-09T00:25:32.905Z,20.10
2018-06-09T00:28:00.426Z,20.10
2018-06-09T00:30:27.950Z,20.10
2018-06-09T00:32:55.473Z,20.10
2018-06-09T00:35:23.008Z,20.10
2018-06-09T00:37:51.397Z,20.10
2018-06-09T00:40:18.896Z,20.10
2018-06-09T00:42:46.458Z,20.00
2018-06-09T00:45:13.954Z,20.00
2018-06-09T00:47:41.529Z,20.00
2018-06-09T00:50:09.077Z,20.00
2018-06-09T00:52:36.636Z,19.90
2018-06-09T00:55:04.294Z,19.80
2018-06-09T00:57:31.877Z,19.80
2018-06-09T00:59:59.397Z,19.80
2018-06-09T01:02:26.931Z,19.70
2018-06-09T01:04:54.420Z,19.70
2018-06-09T01:07:21.933Z,19.70
2018-06-09T01:09:50.434Z,19.70
2018-06-09T01:14:51.981Z,19.60
2018-06-09T01:17:19.510Z,19.60
2018-06-09T01:19:47.048Z,19.60
2018-06-09T01:22:14.586Z,19.70
2018-06-09T01:24:42.089Z,19.70
2018-06-09T01:27:09.728Z,19.50
2018-06-09T01:29:37.263Z,19.60
2018-06-09T01:32:04.797Z,19.60
2018-06-09T01:34:32.333Z,19.60
2018-06-09T01:36:59.856Z,19.60
2018-06-09T01:39:27.389Z,19.60
2018-06-09T01:41:54.892Z,19.50
2018-06-09T01:44:22.524Z,19.50
2018-06-09T01:46:50.036Z,19.40
2018-06-09T01:49:17.646Z,19.40
2018-06-09T01:51:45.177Z,19.40
2018-06-09T01:54:12.701Z,19.40
2018-06-09T01:56:40.212Z,19.40
2018-06-09T01:59:07.733Z,19.30
2018-06-09T02:01:35.231Z,19.30
2018-06-09T02:04:02.748Z,19.30
2018-06-09T02:06:30.263Z,19.20
2018-06-09T02:08:57.772Z,19.30
2018-06-09T02:11:25.256Z,19.20
2018-06-09T02:13:52.773Z,19.30
2018-06-09T02:16:20.279Z,19.30
2018-06-09T02:18:47.807Z,19.30
2018-06-09T02:21:15.301Z,19.30
2018-06-09T02:23:42.830Z,19.30
2018-06-09T02:26:10.302Z,19.30
2018-06-09T02:28:37.821Z,19.30
2018-06-09T02:31:05.394Z,19.30
2018-06-09T02:33:35.852Z,19.30
2018-06-09T02:36:03.402Z,19.30
2018-06-09T02:38:30.911Z,19.30
2018-06-09T02:40:58.458Z,19.30
2018-06-09T02:43:25.960Z,19.20
2018-06-09T02:45:53.481Z,19.20
2018-06-09T02:48:20.989Z,19.20
2018-06-09T02:50:48.532Z,19.20
2018-06-09T02:53:16.012Z,19.10
2018-06-09T02:55:43.567Z,19.20
2018-06-09T02:58:11.072Z,19.20
2018-06-09T03:00:38.610Z,19.10
2018-06-09T03:03:06.125Z,19.00
2018-06-09T03:05:33.674Z,19.00
2018-06-09T03:08:01.190Z,18.90
2018-06-09T03:10:28.719Z,18.80
2018-06-09T03:12:56.226Z,18.80
2018-06-09T03:15:23.731Z,18.80
2018-06-09T03:17:51.213Z,18.70
2018-06-09T03:20:18.778Z,18.80
2018-06-09T03:22:46.283Z,18.80
2018-06-09T03:25:13.802Z,18.80
2018-06-09T03:27:41.313Z,18.80
2018-06-09T03:30:08.861Z,18.80
2018-06-09T03:32:36.398Z,18.80
2018-06-09T03:35:04.039Z,18.80
2018-06-09T03:37:31.537Z,18.80
2018-06-09T03:39:59.030Z,18.90
2018-06-09T03:42:26.585Z,18.90
2018-06-09T03:44:54.380Z,18.90
2018-06-09T03:47:21.911Z,18.90
2018-06-09T03:49:49.413Z,18.90
2018-06-09T03:52:17.175Z,18.90
2018-06-09T03:54:44.691Z,18.90
2018-06-09T03:57:12.204Z,18.90
2018-06-09T03:59:39.710Z,18.90
2018-06-09T04:02:07.238Z,18.90
2018-06-09T04:04:34.765Z,18.90
2018-06-09T04:07:02.300Z,18.90
2018-06-09T04:09:29.798Z,18.90
2018-06-09T04:11:57.340Z,19.00
2018-06-09T04:16:52.294Z,18.90
2018-06-09T04:19:19.790Z,19.00
2018-06-09T04:21:47.354Z,19.00
2018-06-09T04:24:14.860Z,18.90
2018-06-09T04:26:42.386Z,19.00
2018-06-09T04:29:09.885Z,19.00
2018-06-09T04:31:37.408Z,19.10
2018-06-09T04:34:05.057Z,19.00
2018-06-09T04:39:00.052Z,18.90
2018-06-09T04:41:27.577Z,19.00
2018-06-09T04:43:55.097Z,19.10
2018-06-09T04:46:22.592Z,19.10
2018-06-09T04:48:50.124Z,19.10
2018-06-09T04:51:17.633Z,19.10
2018-06-09T04:53:45.178Z,19.20
2018-06-09T04:56:12.695Z,19.20
2018-06-09T04:58:40.270Z,19.20
2018-06-09T05:01:07.765Z,19.30
2018-06-09T05:03:35.297Z,19.40
2018-06-09T05:06:02.817Z,19.40
2018-06-09T05:08:30.374Z,19.40
2018-06-09T05:15:52.770Z,19.50
2018-06-09T05:18:20.329Z,19.50
2018-06-09T05:20:47.858Z,19.70
2018-06-09T05:23:22.072Z,19.80
2018-06-09T05:25:49.574Z,19.80
2018-06-09T05:28:17.095Z,19.80
2018-06-09T05:30:44.603Z,19.60
2018-06-09T05:33:12.144Z,19.60
2018-06-09T05:35:39.676Z,19.50
2018-06-09T05:38:07.224Z,19.50
2018-06-09T05:43:02.369Z,19.50
2018-06-09T05:45:29.926Z,19.60
2018-06-09T05:47:57.478Z,19.50
2018-06-09T05:50:25.076Z,19.50
2018-06-09T05:52:52.568Z,19.40
2018-06-09T05:55:20.107Z,19.30
2018-06-09T05:57:47.698Z,19.40
2018-06-09T06:00:15.309Z,19.60
2018-06-09T06:02:42.825Z,19.50
2018-06-09T06:05:10.427Z,19.60
2018-06-09T06:07:37.991Z,19.60
2018-06-09T06:10:05.653Z,19.60
2018-06-09T06:12:33.245Z,19.70
2018-06-09T06:15:00.785Z,19.70
2018-06-09T06:17:28.321Z,19.80
2018-06-09T06:19:55.937Z,19.90
2018-06-09T06:22:23.553Z,20.10
2018-06-09T06:24:51.157Z,20.20
2018-06-09T06:27:18.712Z,20.30
2018-06-09T06:29:46.293Z,20.50
2018-06-09T06:32:13.813Z,20.50
2018-06-09T06:34:42.551Z,20.60
2018-06-09T06:37:10.131Z,20.60
2018-06-09T06:39:37.695Z,20.60
2018-06-09T06:42:05.304Z,20.70
2018-06-09T06:44:32.817Z,20.50
2018-06-09T06:47:00.441Z,20.60
2018-06-09T06:49:28.018Z,20.60
2018-06-09T06:51:55.614Z,20.70
2018-06-09T06:54:23.120Z,20.70
2018-06-09T06:56:50.673Z,20.60
2018-06-09T06:59:18.205Z,20.70
2018-06-09T07:01:45.713Z,20.70
2018-06-09T07:04:13.214Z,20.70
2018-06-09T07:06:40.741Z,20.80
2018-06-09T07:09:08.237Z,20.90
2018-06-09T07:11:36.005Z,20.90
2018-06-09T07:14:03.591Z,20.80
2018-06-09T07:16:31.137Z,20.70
2018-06-09T07:18:58.685Z,20.70
2018-06-09T07:21:26.181Z,20.70
2018-06-09T07:23:53.794Z,20.90
2018-06-09T07:26:21.300Z,21.00
2018-06-09T07:28:48.842Z,21.20
2018-06-09T07:31:16.389Z,21.30
2018-06-09T07:33:43.938Z,21.50
2018-06-09T07:36:11.578Z,21.60
2018-06-09T07:38:39.132Z,21.70
2018-06-09T07:41:06.729Z,21.80
2018-06-09T07:43:34.352Z,22.00
2018-06-09T07:46:01.888Z,22.20
2018-06-09T07:48:29.413Z,22.30
2018-06-09T07:50:56.924Z,22.40
2018-06-09T07:53:24.512Z,22.50
2018-06-09T07:55:52.079Z,22.40
2018-06-09T07:58:19.735Z,22.50
2018-06-09T08:00:47.347Z,22.50
2018-06-09T08:03:14.881Z,22.60
2018-06-09T08:05:42.417Z,22.60
2018-06-09T08:08:10.614Z,22.60
2018-06-09T08:10:38.228Z,22.60
2018-06-09T08:13:05.832Z,22.60
2018-06-09T08:15:33.364Z,22.60
2018-06-09T08:18:00.905Z,22.60
2018-06-09T08:20:28.433Z,22.70
2018-06-09T08:22:55.953Z,22.60
2018-06-09T08:25:23.553Z,22.70
2018-06-09T08:27:51.065Z,22.70
2018-06-09T08:30:18.592Z,22.80
2018-06-09T08:32:46.105Z,22.90
2018-06-09T08:35:13.701Z,23.10
2018-06-09T08:37:41.242Z,23.20
2018-06-09T08:40:08.760Z,23.30
2018-06-09T08:42:36.285Z,23.50
2018-06-09T08:47:31.380Z,23.50
2018-06-09T08:49:58.917Z,23.60
2018-06-09T08:52:26.474Z,23.70
2018-06-09T08:54:54.082Z,23.70
2018-06-09T08:57:21.640Z,23.80
2018-06-09T09:02:16.665Z,23.90
2018-06-09T09:04:44.186Z,24.00
2018-06-09T09:07:11.915Z,24.00
2018-06-09T09:09:39.628Z,24.10
2018-06-09T09:12:07.254Z,24.10
2018-06-09T09:14:34.829Z,24.10
2018-06-09T09:17:02.391Z,24.30
2018-06-09T09:19:29.905Z,24.40
2018-06-09T09:21:57.475Z,24.50
2018-06-09T09:24:25.125Z,24.70
2018-06-09T09:26:52.628Z,24.60
2018-06-09T09:29:20.144Z,24.60
2018-06-09T09:31:47.852Z,24.40
2018-06-09T09:34:15.538Z,24.60
2018-06-09T09:36:43.127Z,24.80
2018-06-09T09:39:13.614Z,25.00
2018-06-09T09:41:41.364Z,25.20
2018-06-09T09:44:08.901Z,25.40
2018-06-09T09:46:36.418Z,25.40
2018-06-09T09:49:04.070Z,25.40
2018-06-09T09:51:31.703Z,25.50
2018-06-09T09:53:59.324Z,25.40
2018-06-09T09:56:26.830Z,25.40
2018-06-09T09:58:54.373Z,25.40
2018-06-09T10:01:22.032Z,25.30
2018-06-09T10:03:49.717Z,25.30
2018-06-09T10:06:17.228Z,25.00
2018-06-09T10:08:44.890Z,25.10
2018-06-09T10:11:12.428Z,25.10
2018-06-09T10:13:40.010Z,25.00
2018-06-09T10:16:07.679Z,24.90
2018-06-09T10:18:35.310Z,24.90
2018-06-09T10:21:02.917Z,24.90
2018-06-09T10:23:31.097Z,25.00
2018-06-09T10:25:58.628Z,25.30
2018-06-09T10:28:26.209Z,25.40
2018-06-09T10:30:53.746Z,25.20
2018-06-09T10:33:21.304Z,25.20
2018-06-09T10:35:48.864Z,25.30
2018-06-09T10:38:23.006Z,25.40
2018-06-09T10:40:50.534Z,25.40
2018-06-09T10:43:18.098Z,25.50
2018-06-09T10:45:45.664Z,25.40
2018-06-09T10:48:13.831Z,25.30
2018-06-09T10:50:41.392Z,25.20
2018-06-09T10:53:08.920Z,25.30
2018-06-09T10:55:36.435Z,25.10
2018-06-09T10:58:04.116Z,25.10
2018-06-09T11:00:31.757Z,25.20
2018-06-09T11:02:59.309Z,25.30
2018-06-09T11:05:26.910Z,25.30
2018-06-09T11:07:54.433Z,25.40
2018-06-09T11:12:49.468Z,25.50
2018-06-09T11:15:17.157Z,25.70
2018-06-09T11:17:45.845Z,25.80
2018-06-09T11:20:13.539Z,25.80
2018-06-09T11:22:41.079Z,25.80
2018-06-09T11:25:08.593Z,25.80
2018-06-09T11:27:36.121Z,25.70
2018-06-09T11:30:03.819Z,25.70
2018-06-09T11:32:31.626Z,25.70
2018-06-09T11:34:59.385Z,25.80
2018-06-09T11:37:26.928Z,25.70
2018-06-09T11:39:54.523Z,25.80
2018-06-09T11:42:25.117Z,25.80
2018-06-09T11:44:52.718Z,25.80
2018-06-09T11:47:20.755Z,25.80
2018-06-09T11:49:48.285Z,25.80
2018-06-09T11:52:16.541Z,25.80
2018-06-09T11:54:44.132Z,26.00
2018-06-09T11:57:11.643Z,26.10
2018-06-09T11:59:39.173Z,26.00
2018-06-09T12:02:06.707Z,26.20
2018-06-09T12:04:34.229Z,26.30
2018-06-09T12:07:01.802Z,26.40
2018-06-09T12:09:29.308Z,26.50
2018-06-09T12:11:56.845Z,26.50
2018-06-09T12:14:24.397Z,26.40
2018-06-09T12:16:51.948Z,26.50
2018-06-09T12:19:19.500Z,26.60
2018-06-09T12:21:47.083Z,26.70
2018-06-09T12:24:14.606Z,26.70
2018-06-09T12:26:42.153Z,26.80
2018-06-09T12:29:09.727Z,26.80
2018-06-09T12:31:37.277Z,26.90
2018-06-09T12:34:04.846Z,26.90
2018-06-09T12:36:32.386Z,27.10
2018-06-09T12:39:00.034Z,27.20
2018-06-09T12:41:27.590Z,27.30
2018-06-09T12:43:55.103Z,27.30
2018-06-09T12:46:23.328Z,27.40
2018-06-09T12:48:51.858Z,27.40
2018-06-09T12:51:19.394Z,27.30
2018-06-09T12:53:46.917Z,27.50
2018-06-09T12:56:14.423Z,27.60
2018-06-09T12:58:42.351Z,27.60
2018-06-09T13:01:09.868Z,27.70
2018-06-09T13:03:37.482Z,27.80
2018-06-09T13:06:05.060Z,27.90
2018-06-09T13:08:32.653Z,27.90
2018-06-09T13:11:00.200Z,27.90
2018-06-09T13:13:27.769Z,27.90
2018-06-09T13:15:55.293Z,28.00
2018-06-09T13:18:23.194Z,28.00
2018-06-09T13:20:50.714Z,28.20
2018-06-09T13:23:19.146Z,28.20
2018-06-09T13:25:46.651Z,28.20
2018-06-09T13:28:14.235Z,28.10
2018-06-09T13:30:41.769Z,28.10
2018-06-09T13:33:09.380Z,28.30
2018-06-09T13:35:36.896Z,28.30
2018-06-09T13:45:26.816Z,28.00
2018-06-09T13:47:54.342Z,27.90
2018-06-09T13:50:21.865Z,27.90
2018-06-09T13:52:49.365Z,28.00
2018-06-09T13:55:16.900Z,28.10
2018-06-09T13:57:44.409Z,28.10
2018-06-09T14:00:12.180Z,28.20
2018-06-09T14:02:40.586Z,28.10
2018-06-09T14:05:08.185Z,28.00
2018-06-09T14:07:37.717Z,28.10
2018-06-09T14:10:05.245Z,28.10
2018-06-09T14:12:32.765Z,27.90
2018-06-09T14:15:00.297Z,28.00
2018-06-09T14:17:27.966Z,28.00
2018-06-09T14:19:55.503Z,28.10
2018-06-09T14:22:23.033Z,28.10
2018-06-09T14:24:50.628Z,28.10
2018-06-09T14:29:45.654Z,28.00
2018-06-09T14:32:13.177Z,27.90
2018-06-09T14:34:40.695Z,28.00
2018-06-09T14:37:08.477Z,28.10
2018-06-09T14:39:36.013Z,28.20
2018-06-09T14:42:03.641Z,28.40
2018-06-09T14:46:58.860Z,28.70
2018-06-09T14:49:26.420Z,28.70
2018-06-09T14:54:21.403Z,28.80
2018-06-09T14:56:48.926Z,28.90
2018-06-09T14:59:16.613Z,28.80
2018-06-09T15:01:44.174Z,28.80
2018-06-09T15:04:11.702Z,28.80
2018-06-09T15:06:39.229Z,28.90
2018-06-09T15:09:07.973Z,28.70
2018-06-09T15:11:35.573Z,28.80
2018-06-09T15:16:30.914Z,29.10
2018-06-09T15:18:58.444Z,29.30
2018-06-09T15:21:26.039Z,29.20
2018-06-09T15:23:53.573Z,29.10
2018-06-09T15:26:21.093Z,29.20
2018-06-09T15:28:48.609Z,29.00
2018-06-09T15:31:16.178Z,29.10
2018-06-09T15:33:43.764Z,29.40
2018-06-09T15:36:11.373Z,29.90
2018-06-09T15:41:06.292Z,31.20
2018-06-09T15:43:33.932Z,31.90
2018-06-09T15:46:01.480Z,32.70
2018-06-09T15:48:29.030Z,33.00
2018-06-09T15:50:56.873Z,33.70
2018-06-09T15:53:24.447Z,34.40
2018-06-09T15:55:52.593Z,35.00
2018-06-09T15:58:20.255Z,35.40
2018-06-09T16:00:47.815Z,35.80
2018-06-09T16:03:15.347Z,35.80
2018-06-09T16:05:42.931Z,36.00
2018-06-09T16:08:10.516Z,36.40
2018-06-09T16:10:38.108Z,36.60
2018-06-09T16:13:05.727Z,36.90
2018-06-09T16:15:33.270Z,37.00
2018-06-09T16:18:00.858Z,36.70
2018-06-09T16:20:28.396Z,36.70
2018-06-09T16:22:55.948Z,36.60
2018-06-09T16:25:23.541Z,36.40
2018-06-09T16:27:51.070Z,36.30
2018-06-09T16:30:18.580Z,36.50
2018-06-09T16:32:46.155Z,36.90
2018-06-09T16:35:13.632Z,36.90
2018-06-09T16:37:41.199Z,36.50
2018-06-09T16:40:08.753Z,36.70
2018-06-09T16:42:36.309Z,36.70
2018-06-09T16:45:03.974Z,35.90
2018-06-09T16:47:31.584Z,35.70
2018-06-09T16:49:59.112Z,35.90
2018-06-09T16:52:26.664Z,35.90
2018-06-09T16:54:54.176Z,35.90
2018-06-09T16:57:21.674Z,35.80
2018-06-09T16:59:49.242Z,35.70
2018-06-09T17:02:16.783Z,35.60
2018-06-09T17:04:44.284Z,35.30
2018-06-09T17:07:11.809Z,35.10
2018-06-09T17:09:39.336Z,35.50
2018-06-09T17:12:06.982Z,35.70
2018-06-09T17:14:34.555Z,35.70
2018-06-09T17:17:02.070Z,35.50
2018-06-09T17:19:29.614Z,35.40
2018-06-09T17:21:57.248Z,35.20
2018-06-09T17:24:28.912Z,34.90
2018-06-09T17:26:56.722Z,34.60
2018-06-09T17:29:24.300Z,34.40
2018-06-09T17:31:51.874Z,34.00
2018-06-09T17:34:19.389Z,33.60
2018-06-09T17:37:08.032Z,33.60
2018-06-09T17:39:36.097Z,33.10
2018-06-09T17:42:03.732Z,32.20
2018-06-09T17:44:31.236Z,31.50
2018-06-09T17:46:58.813Z,30.90
2018-06-09T17:49:26.322Z,30.40
2018-06-09T17:51:53.853Z,29.90
2018-06-09T17:54:21.500Z,29.50
2018-06-09T17:59:16.578Z,28.90
2018-06-09T18:01:44.173Z,28.80
2018-06-09T18:04:11.718Z,28.50
2018-06-09T18:06:39.286Z,28.40
2018-06-09T18:09:07.685Z,28.40
2018-06-09T18:11:35.517Z,28.30
2018-06-09T18:14:03.157Z,28.10
2018-06-09T18:16:30.688Z,28.00
2018-06-09T18:18:58.228Z,27.80
2018-06-09T18:21:25.777Z,27.70
2018-06-09T18:23:53.325Z,27.70
2018-06-09T18:26:20.957Z,27.50
2018-06-09T18:28:48.656Z,27.40
2018-06-09T18:33:43.694Z,27.30
2018-06-09T18:36:11.184Z,27.20
2018-06-09T18:38:38.741Z,27.20
2018-06-09T18:41:06.334Z,27.20
2018-06-09T18:46:01.297Z,26.90
2018-06-09T18:48:28.814Z,26.90
2018-06-09T18:50:56.346Z,26.90
2018-06-09T18:53:23.873Z,26.80
2018-06-09T18:55:52.057Z,26.80
2018-06-09T18:58:19.618Z,26.80
2018-06-09T19:00:47.125Z,26.70
2018-06-09T19:05:42.096Z,26.70
2018-06-09T19:08:09.633Z,26.60
2018-06-09T19:10:37.153Z,26.60
2018-06-09T19:13:04.771Z,26.50
2018-06-09T19:15:32.323Z,26.30
2018-06-09T19:17:59.875Z,26.30
2018-06-09T19:20:27.446Z,26.20
2018-06-09T19:22:54.964Z,26.10
2018-06-09T19:25:22.488Z,26.10
2018-06-09T19:27:50.006Z,26.00
2018-06-09T19:32:51.785Z,25.80
2018-06-09T19:35:19.394Z,25.80
2018-06-09T19:37:46.937Z,25.70
2018-06-09T19:40:14.468Z,25.60
2018-06-09T19:42:42.021Z,25.50
2018-06-09T19:45:09.529Z,25.50
2018-06-09T19:47:37.057Z,25.40
2018-06-09T19:50:04.573Z,25.30
2018-06-09T19:52:32.078Z,25.30
2018-06-09T19:54:59.600Z,25.30
2018-06-09T19:57:27.148Z,25.20
2018-06-09T19:59:54.678Z,25.20
2018-06-09T20:02:22.202Z,25.20
2018-06-09T20:04:49.716Z,25.20
2018-06-09T20:07:17.248Z,25.10
2018-06-09T20:09:45.601Z,25.00
2018-06-09T20:12:13.117Z,25.00
2018-06-09T20:14:40.656Z,25.00
2018-06-09T20:17:08.164Z,25.00
2018-06-09T20:19:35.694Z,24.80
2018-06-09T20:22:03.184Z,24.70
2018-06-09T20:24:30.710Z,24.70
2018-06-09T20:26:58.346Z,24.70
2018-06-09T20:31:53.381Z,24.60
2018-06-09T20:34:20.981Z,24.50
2018-06-09T20:36:48.477Z,24.40
2018-06-09T20:39:15.984Z,24.40
2018-06-09T20:41:43.577Z,24.40
2018-06-09T20:44:11.137Z,24.30
2018-06-09T20:46:38.713Z,24.30
2018-06-09T20:49:06.240Z,24.20
2018-06-09T20:51:33.862Z,24.20
2018-06-09T20:54:02.346Z,24.10
2018-06-09T20:56:29.889Z,24.10
2018-06-09T20:58:57.405Z,24.10
2018-06-09T21:01:24.960Z,24.10
2018-06-09T21:03:52.502Z,24.00
2018-06-09T21:06:20.035Z,24.00
2018-06-09T21:08:47.587Z,23.90
2018-06-09T21:11:15.167Z,23.90
2018-06-09T21:13:42.735Z,23.90
2018-06-09T21:16:10.316Z,23.80
2018-06-09T21:18:37.852Z,23.80
2018-06-09T21:21:05.441Z,23.70
2018-06-09T21:23:32.999Z,23.70
2018-06-09T21:26:00.579Z,23.70
2018-06-09T21:28:32.646Z,23.60
2018-06-09T21:31:16.844Z,23.50
2018-06-09T21:34:01.359Z,23.40
2018-06-09T21:36:34.370Z,23.30
2018-06-09T21:39:07.577Z,23.30
2018-06-09T21:41:40.713Z,23.20
2018-06-09T21:44:13.905Z,23.10
2018-06-09T21:46:46.997Z,22.90
2018-06-09T21:49:15.685Z,22.90
2018-06-09T21:51:43.256Z,22.80
2018-06-09T21:54:10.807Z,22.70
2018-06-09T21:59:06.199Z,22.70
2018-06-09T22:01:34.177Z,22.50
2018-06-09T22:04:01.750Z,22.50
2018-06-09T22:06:29.309Z,22.50
2018-06-09T22:08:56.878Z,22.40
2018-06-09T22:11:24.468Z,22.40
2018-06-09T22:13:52.101Z,22.30
2018-06-09T22:16:19.600Z,22.30
2018-06-09T22:18:47.148Z,22.30
2018-06-09T22:21:14.660Z,22.20
2018-06-09T22:26:15.208Z,22.10
2018-06-09T22:28:43.149Z,22.20
2018-06-09T22:31:10.674Z,22.10
2018-06-09T22:33:38.332Z,22.10
2018-06-09T22:36:05.915Z,22.00
2018-06-09T22:38:33.448Z,22.10
2018-06-09T22:41:00.987Z,22.10
2018-06-09T22:43:28.534Z,22.10
2018-06-09T22:45:56.038Z,22.10
2018-06-09T22:48:23.590Z,22.10
2018-06-09T22:50:51.161Z,22.10
2018-06-09T22:53:18.705Z,22.20
2018-06-09T22:55:46.462Z,22.20
2018-06-09T22:58:14.029Z,22.10
2018-06-09T23:00:47.328Z,22.00
2018-06-09T23:03:15.644Z,22.00
2018-06-09T23:05:43.289Z,22.00
2018-06-09T23:08:10.912Z,22.10
2018-06-09T23:10:38.492Z,22.10
2018-06-09T23:13:06.105Z,22.10
2018-06-09T23:15:33.630Z,22.10
2018-06-09T23:18:01.173Z,22.10
2018-06-09T23:20:28.704Z,22.00
2018-06-09T23:22:56.262Z,22.10
2018-06-09T23:25:23.819Z,22.10
2018-06-09T23:27:51.337Z,22.10
2018-06-09T23:30:18.880Z,22.00
2018-06-09T23:32:46.420Z,22.00
2018-06-09T23:35:14.637Z,21.80
2018-06-09T23:37:42.150Z,21.70
2018-06-09T23:40:09.688Z,21.70
2018-06-09T23:42:37.229Z,21.60
2018-06-09T23:45:04.751Z,21.50
2018-06-09T23:47:32.301Z,21.60
2018-06-09T23:49:59.866Z,21.60
2018-06-09T23:52:27.353Z,21.70
2018-06-09T23:54:54.887Z,21.80
2018-06-09T23:57:22.441Z,21.80
2018-06-09T23:59:49.980Z,22.00
